sensor_id;sensor_type;location;lat;lon;timestamp;temperature;humidity
48912;DHT22;34722;52.108;5.044;2023-08-24T00:01:10;17.40;99.90
48912;DHT22;34722;52.108;5.044;2023-08-24T00:03:37;17.30;99.90
48912;DHT22;34722;52.108;5.044;2023-08-24T00:06:03;17.20;99.90
48912;DHT22;34722;52.108;5.044;2023-08-24T00:08:28;17.30;99.90
48912;DHT22;34722;52.108;5.044;2023-08-24T00:10:54;17.30;99.90
48912;DHT22;34722;52.108;5.044;2023-08-24T00:13:20;17.40;99.90
48912;DHT22;34722;52.108;5.044;2023-08-24T00:15:46;17.40;99.90
48912;DHT22;34722;52.108;5.044;2023-08-24T00:18:11;17.40;99.90
48912;DHT22;34722;52.108;5.044;2023-08-24T00:20:37;17.50;99.90
48912;DHT22;34722;52.108;5.044;2023-08-24T00:23:03;17.50;99.90
48912;DHT22;34722;52.108;5.044;2023-08-24T00:25:30;17.50;99.90
48912;DHT22;34722;52.108;5.044;2023-08-24T00:27:56;17.60;99.90
48912;DHT22;34722;52.108;5.044;2023-08-24T00:30:22;17.60;99.90
48912;DHT22;34722;52.108;5.044;2023-08-24T00:32:48;17.60;99.90
48912;DHT22;34722;52.108;5.044;2023-08-24T00:35:14;17.70;99.90
48912;DHT22;34722;52.108;5.044;2023-08-24T00:37:40;17.80;99.90
48912;DHT22;34722;52.108;5.044;2023-08-24T00:40:06;17.80;99.90
48912;DHT22;34722;52.108;5.044;2023-08-24T00:42:40;17.80;99.90
48912;DHT22;34722;52.108;5.044;2023-08-24T00:45:10;17.80;99.90
48912;DHT22;34722;52.108;5.044;2023-08-24T00:47:47;17.80;99.90
48912;DHT22;34722;52.108;5.044;2023-08-24T00:50:13;17.80;99.90
48912;DHT22;34722;52.108;5.044;2023-08-24T00:52:41;17.70;99.90
48912;DHT22;34722;52.108;5.044;2023-08-24T00:55:08;17.70;99.90
48912;DHT22;34722;52.108;5.044;2023-08-24T00:57:35;17.60;99.90
48912;DHT22;34722;52.108;5.044;2023-08-24T01:00:04;17.60;99.90
48912;DHT22;34722;52.108;5.044;2023-08-24T01:02:37;17.60;99.90
48912;DHT22;34722;52.108;5.044;2023-08-24T01:05:03;17.50;99.90
48912;DHT22;34722;52.108;5.044;2023-08-24T01:07:38;17.60;99.90
48912;DHT22;34722;52.108;5.044;2023-08-24T01:10:05;17.50;99.90
48912;DHT22;34722;52.108;5.044;2023-08-24T01:13:07;17.60;99.90
48912;DHT22;34722;52.108;5.044;2023-08-24T01:18:13;17.50;99.90
48912;DHT22;34722;52.108;5.044;2023-08-24T01:20:44;17.50;99.90
48912;DHT22;34722;52.108;5.044;2023-08-24T01:23:26;17.50;99.90
48912;DHT22;34722;52.108;5.044;2023-08-24T01:26:07;17.50;99.90
48912;DHT22;34722;52.108;5.044;2023-08-24T01:28:33;17.60;99.90
48912;DHT22;34722;52.108;5.044;2023-08-24T01:30:59;17.60;99.90
48912;DHT22;34722;52.108;5.044;2023-08-24T01:33:25;17.60;99.90
48912;DHT22;34722;52.108;5.044;2023-08-24T01:35:50;17.60;99.90
48912;DHT22;34722;52.108;5.044;2023-08-24T01:38:16;17.60;99.90
48912;DHT22;34722;52.108;5.044;2023-08-24T01:43:30;17.60;99.90
48912;DHT22;34722;52.108;5.044;2023-08-24T01:46:00;17.70;99.90
48912;DHT22;34722;52.108;5.044;2023-08-24T01:48:28;17.70;99.90
48912;DHT22;34722;52.108;5.044;2023-08-24T01:50:55;17.70;99.90
48912;DHT22;34722;52.108;5.044;2023-08-24T01:53:22;17.70;99.90
48912;DHT22;34722;52.108;5.044;2023-08-24T01:55:48;17.70;99.90
48912;DHT22;34722;52.108;5.044;2023-08-24T01:58:13;17.80;99.90
48912;DHT22;34722;52.108;5.044;2023-08-24T02:00:39;17.70;99.90
48912;DHT22;34722;52.108;5.044;2023-08-24T02:03:05;17.70;99.90
48912;DHT22;34722;52.108;5.044;2023-08-24T02:05:30;17.70;99.90
48912;DHT22;34722;52.108;5.044;2023-08-24T02:07:56;17.60;99.90
48912;DHT22;34722;52.108;5.044;2023-08-24T02:10:23;17.60;99.90
48912;DHT22;34722;52.108;5.044;2023-08-24T02:12:48;17.50;99.90
48912;DHT22;34722;52.108;5.044;2023-08-24T02:15:14;17.50;99.90
48912;DHT22;34722;52.108;5.044;2023-08-24T02:17:40;17.50;99.90
48912;DHT22;34722;52.108;5.044;2023-08-24T02:20:06;17.40;99.90
48912;DHT22;34722;52.108;5.044;2023-08-24T02:22:34;17.40;99.90
48912;DHT22;34722;52.108;5.044;2023-08-24T02:25:00;17.40;99.90
48912;DHT22;34722;52.108;5.044;2023-08-24T02:27:26;17.50;99.90
48912;DHT22;34722;52.108;5.044;2023-08-24T02:29:52;17.40;99.90
48912;DHT22;34722;52.108;5.044;2023-08-24T02:32:18;17.40;99.90
48912;DHT22;34722;52.108;5.044;2023-08-24T02:34:43;17.40;99.90
48912;DHT22;34722;52.108;5.044;2023-08-24T02:37:09;17.40;99.90
48912;DHT22;34722;52.108;5.044;2023-08-24T02:39:35;17.30;99.90
48912;DHT22;34722;52.108;5.044;2023-08-24T02:42:01;17.30;99.90
48912;DHT22;34722;52.108;5.044;2023-08-24T02:44:27;17.40;99.90
48912;DHT22;34722;52.108;5.044;2023-08-24T02:46:54;17.30;99.90
48912;DHT22;34722;52.108;5.044;2023-08-24T02:49:19;17.30;99.90
48912;DHT22;34722;52.108;5.044;2023-08-24T02:51:46;17.40;99.90
48912;DHT22;34722;52.108;5.044;2023-08-24T02:54:11;17.40;99.90
48912;DHT22;34722;52.108;5.044;2023-08-24T02:56:37;17.40;99.90
48912;DHT22;34722;52.108;5.044;2023-08-24T02:59:02;17.40;99.90
48912;DHT22;34722;52.108;5.044;2023-08-24T03:01:28;17.40;99.90
48912;DHT22;34722;52.108;5.044;2023-08-24T03:03:54;17.40;99.90
48912;DHT22;34722;52.108;5.044;2023-08-24T03:06:20;17.40;99.90
48912;DHT22;34722;52.108;5.044;2023-08-24T03:08:45;17.40;99.90
48912;DHT22;34722;52.108;5.044;2023-08-24T03:11:11;17.40;99.90
48912;DHT22;34722;52.108;5.044;2023-08-24T03:13:37;17.40;99.90
48912;DHT22;34722;52.108;5.044;2023-08-24T03:16:04;17.40;99.90
48912;DHT22;34722;52.108;5.044;2023-08-24T03:18:30;17.40;99.90
48912;DHT22;34722;52.108;5.044;2023-08-24T03:20:56;17.40;99.90
48912;DHT22;34722;52.108;5.044;2023-08-24T03:23:22;17.40;99.90
48912;DHT22;34722;52.108;5.044;2023-08-24T03:25:47;17.40;99.90
48912;DHT22;34722;52.108;5.044;2023-08-24T03:28:13;17.30;99.90
48912;DHT22;34722;52.108;5.044;2023-08-24T03:30:46;17.30;99.90
48912;DHT22;34722;52.108;5.044;2023-08-24T03:33:11;17.20;99.90
48912;DHT22;34722;52.108;5.044;2023-08-24T03:35:37;17.20;99.90
48912;DHT22;34722;52.108;5.044;2023-08-24T03:38:03;17.20;99.90
48912;DHT22;34722;52.108;5.044;2023-08-24T03:40:29;17.20;99.90
48912;DHT22;34722;52.108;5.044;2023-08-24T03:42:55;17.10;99.90
48912;DHT22;34722;52.108;5.044;2023-08-24T03:45:21;17.10;99.90
48912;DHT22;34722;52.108;5.044;2023-08-24T03:47:48;17.10;99.90
48912;DHT22;34722;52.108;5.044;2023-08-24T03:50:14;17.00;99.90
48912;DHT22;34722;52.108;5.044;2023-08-24T03:52:39;16.90;99.90
48912;DHT22;34722;52.108;5.044;2023-08-24T03:55:06;16.90;99.90
48912;DHT22;34722;52.108;5.044;2023-08-24T03:57:32;16.80;99.90
48912;DHT22;34722;52.108;5.044;2023-08-24T03:59:58;16.80;99.90
48912;DHT22;34722;52.108;5.044;2023-08-24T04:02:24;16.70;99.90
48912;DHT22;34722;52.108;5.044;2023-08-24T04:04:50;16.70;99.90
48912;DHT22;34722;52.108;5.044;2023-08-24T04:07:16;16.70;99.90
48912;DHT22;34722;52.108;5.044;2023-08-24T04:09:41;16.60;99.90
48912;DHT22;34722;52.108;5.044;2023-08-24T04:12:07;16.60;99.90
48912;DHT22;34722;52.108;5.044;2023-08-24T04:14:33;16.60;99.90
48912;DHT22;34722;52.108;5.044;2023-08-24T04:16:59;16.60;99.90
48912;DHT22;34722;52.108;5.044;2023-08-24T04:19:25;16.50;99.90
48912;DHT22;34722;52.108;5.044;2023-08-24T04:21:50;16.60;99.90
48912;DHT22;34722;52.108;5.044;2023-08-24T04:24:16;16.60;99.90
48912;DHT22;34722;52.108;5.044;2023-08-24T04:26:41;16.50;99.90
48912;DHT22;34722;52.108;5.044;2023-08-24T04:29:07;16.50;99.90
48912;DHT22;34722;52.108;5.044;2023-08-24T04:31:33;16.50;99.90
48912;DHT22;34722;52.108;5.044;2023-08-24T04:33:59;16.50;99.90
48912;DHT22;34722;52.108;5.044;2023-08-24T04:36:25;16.50;99.90
48912;DHT22;34722;52.108;5.044;2023-08-24T04:38:50;16.50;99.90
48912;DHT22;34722;52.108;5.044;2023-08-24T04:41:16;16.50;99.90
48912;DHT22;34722;52.108;5.044;2023-08-24T04:43:42;16.50;99.90
48912;DHT22;34722;52.108;5.044;2023-08-24T04:46:08;16.50;99.90
48912;DHT22;34722;52.108;5.044;2023-08-24T04:48:34;16.50;99.90
48912;DHT22;34722;52.108;5.044;2023-08-24T04:51:00;16.50;99.90
48912;DHT22;34722;52.108;5.044;2023-08-24T04:53:27;16.50;99.90
48912;DHT22;34722;52.108;5.044;2023-08-24T04:55:53;16.60;99.90
48912;DHT22;34722;52.108;5.044;2023-08-24T04:58:19;16.60;99.90
48912;DHT22;34722;52.108;5.044;2023-08-24T05:00:45;16.70;99.90
48912;DHT22;34722;52.108;5.044;2023-08-24T05:03:10;16.70;99.90
48912;DHT22;34722;52.108;5.044;2023-08-24T05:05:36;16.80;99.90
48912;DHT22;34722;52.108;5.044;2023-08-24T05:08:04;16.90;99.90
48912;DHT22;34722;52.108;5.044;2023-08-24T05:10:36;17.10;99.90
48912;DHT22;34722;52.108;5.044;2023-08-24T05:13:01;17.20;99.90
48912;DHT22;34722;52.108;5.044;2023-08-24T05:15:27;17.20;99.90
48912;DHT22;34722;52.108;5.044;2023-08-24T05:17:53;17.30;99.90
48912;DHT22;34722;52.108;5.044;2023-08-24T05:20:20;17.30;99.90
48912;DHT22;34722;52.108;5.044;2023-08-24T05:22:47;17.40;99.90
48912;DHT22;34722;52.108;5.044;2023-08-24T05:25:12;17.50;99.90
48912;DHT22;34722;52.108;5.044;2023-08-24T05:27:39;17.50;99.90
48912;DHT22;34722;52.108;5.044;2023-08-24T05:30:06;17.60;99.90
48912;DHT22;34722;52.108;5.044;2023-08-24T05:32:31;17.60;99.90
48912;DHT22;34722;52.108;5.044;2023-08-24T05:34:57;17.60;99.90
48912;DHT22;34722;52.108;5.044;2023-08-24T05:37:23;17.60;99.90
48912;DHT22;34722;52.108;5.044;2023-08-24T05:39:49;17.60;99.90
48912;DHT22;34722;52.108;5.044;2023-08-24T05:42:15;17.70;99.90
48912;DHT22;34722;52.108;5.044;2023-08-24T05:44:40;17.80;99.90
48912;DHT22;34722;52.108;5.044;2023-08-24T05:47:06;17.90;99.90
48912;DHT22;34722;52.108;5.044;2023-08-24T05:49:32;17.90;99.90
48912;DHT22;34722;52.108;5.044;2023-08-24T05:51:57;17.90;99.90
48912;DHT22;34722;52.108;5.044;2023-08-24T05:54:26;18.00;99.90
48912;DHT22;34722;52.108;5.044;2023-08-24T05:56:52;18.10;99.90
48912;DHT22;34722;52.108;5.044;2023-08-24T05:59:17;18.20;99.90
48912;DHT22;34722;52.108;5.044;2023-08-24T06:01:43;18.30;99.90
48912;DHT22;34722;52.108;5.044;2023-08-24T06:04:09;18.40;99.90
48912;DHT22;34722;52.108;5.044;2023-08-24T06:06:55;18.50;99.90
48912;DHT22;34722;52.108;5.044;2023-08-24T06:09:20;18.50;99.90
48912;DHT22;34722;52.108;5.044;2023-08-24T06:11:46;18.60;99.90
48912;DHT22;34722;52.108;5.044;2023-08-24T06:14:12;18.70;99.90
48912;DHT22;34722;52.108;5.044;2023-08-24T06:16:37;18.80;99.90
48912;DHT22;34722;52.108;5.044;2023-08-24T06:19:03;18.80;99.90
48912;DHT22;34722;52.108;5.044;2023-08-24T06:21:29;18.80;99.90
48912;DHT22;34722;52.108;5.044;2023-08-24T06:23:55;18.90;99.90
48912;DHT22;34722;52.108;5.044;2023-08-24T06:26:21;19.00;99.90
48912;DHT22;34722;52.108;5.044;2023-08-24T06:28:46;19.00;99.90
48912;DHT22;34722;52.108;5.044;2023-08-24T06:31:13;19.10;99.90
48912;DHT22;34722;52.108;5.044;2023-08-24T06:33:38;19.30;99.90
48912;DHT22;34722;52.108;5.044;2023-08-24T06:36:04;19.40;99.90
48912;DHT22;34722;52.108;5.044;2023-08-24T06:38:33;19.50;99.90
48912;DHT22;34722;52.108;5.044;2023-08-24T06:40:59;19.70;99.90
48912;DHT22;34722;52.108;5.044;2023-08-24T06:43:28;20.10;99.90
48912;DHT22;34722;52.108;5.044;2023-08-24T06:45:57;20.80;99.90
48912;DHT22;34722;52.108;5.044;2023-08-24T06:48:23;21.50;99.90
48912;DHT22;34722;52.108;5.044;2023-08-24T06:50:48;22.30;99.90
48912;DHT22;34722;52.108;5.044;2023-08-24T06:53:14;23.20;99.90
48912;DHT22;34722;52.108;5.044;2023-08-24T06:55:42;24.10;99.90
48912;DHT22;34722;52.108;5.044;2023-08-24T06:58:08;24.70;99.90
48912;DHT22;34722;52.108;5.044;2023-08-24T07:00:34;25.30;99.90
48912;DHT22;34722;52.108;5.044;2023-08-24T07:03:04;25.80;99.90
48912;DHT22;34722;52.108;5.044;2023-08-24T07:05:29;26.00;14.40
48912;DHT22;34722;52.108;5.044;2023-08-24T07:07:56;26.20;99.90
48912;DHT22;34722;52.108;5.044;2023-08-24T07:10:22;26.20;99.90
48912;DHT22;34722;52.108;5.044;2023-08-24T07:12:47;26.40;1.00
48912;DHT22;34722;52.108;5.044;2023-08-24T07:15:13;27.00;1.00
48912;DHT22;34722;52.108;5.044;2023-08-24T07:17:39;27.30;1.20
48912;DHT22;34722;52.108;5.044;2023-08-24T07:20:05;27.60;1.00
48912;DHT22;34722;52.108;5.044;2023-08-24T07:22:32;28.30;83.70
48912;DHT22;34722;52.108;5.044;2023-08-24T07:24:58;28.60;99.90
48912;DHT22;34722;52.108;5.044;2023-08-24T07:27:23;28.70;99.90
48912;DHT22;34722;52.108;5.044;2023-08-24T07:29:49;29.00;99.90
48912;DHT22;34722;52.108;5.044;2023-08-24T07:32:15;29.10;10.60
48912;DHT22;34722;52.108;5.044;2023-08-24T07:34:40;29.30;1.00
48912;DHT22;34722;52.108;5.044;2023-08-24T07:37:06;29.30;1.00
48912;DHT22;34722;52.108;5.044;2023-08-24T07:39:32;30.00;99.90
48912;DHT22;34722;52.108;5.044;2023-08-24T07:41:58;29.90;99.90
48912;DHT22;34722;52.108;5.044;2023-08-24T07:44:24;30.00;99.90
48912;DHT22;34722;52.108;5.044;2023-08-24T07:46:50;30.30;99.90
48912;DHT22;34722;52.108;5.044;2023-08-24T07:49:15;31.00;99.90
48912;DHT22;34722;52.108;5.044;2023-08-24T07:51:41;31.30;99.90
48912;DHT22;34722;52.108;5.044;2023-08-24T07:54:08;31.60;99.90
48912;DHT22;34722;52.108;5.044;2023-08-24T07:56:34;32.00;99.90
48912;DHT22;34722;52.108;5.044;2023-08-24T07:59:00;31.80;99.90
48912;DHT22;34722;52.108;5.044;2023-08-24T08:01:29;31.40;99.90
48912;DHT22;34722;52.108;5.044;2023-08-24T08:03:55;30.50;99.40
48912;DHT22;34722;52.108;5.044;2023-08-24T08:06:23;29.20;99.90
48912;DHT22;34722;52.108;5.044;2023-08-24T08:08:52;28.20;99.90
48912;DHT22;34722;52.108;5.044;2023-08-24T08:11:18;27.20;99.90
48912;DHT22;34722;52.108;5.044;2023-08-24T08:13:44;26.70;1.00
48912;DHT22;34722;52.108;5.044;2023-08-24T08:16:10;26.60;99.40
48912;DHT22;34722;52.108;5.044;2023-08-24T08:18:36;26.40;99.90
48912;DHT22;34722;52.108;5.044;2023-08-24T08:21:09;26.70;99.90
48912;DHT22;34722;52.108;5.044;2023-08-24T08:23:35;26.80;99.90
48912;DHT22;34722;52.108;5.044;2023-08-24T08:26:01;26.80;1.00
48912;DHT22;34722;52.108;5.044;2023-08-24T08:28:27;26.90;99.90
48912;DHT22;34722;52.108;5.044;2023-08-24T08:30:52;26.70;4.40
48912;DHT22;34722;52.108;5.044;2023-08-24T08:33:18;26.20;99.90
48912;DHT22;34722;52.108;5.044;2023-08-24T08:35:45;26.30;99.90
48912;DHT22;34722;52.108;5.044;2023-08-24T08:38:10;26.60;1.00
48912;DHT22;34722;52.108;5.044;2023-08-24T08:40:37;26.90;1.00
48912;DHT22;34722;52.108;5.044;2023-08-24T08:43:03;26.90;99.90
48912;DHT22;34722;52.108;5.044;2023-08-24T08:45:29;26.80;99.90
48912;DHT22;34722;52.108;5.044;2023-08-24T08:47:59;26.60;99.90
48912;DHT22;34722;52.108;5.044;2023-08-24T08:50:25;26.60;94.80
48912;DHT22;34722;52.108;5.044;2023-08-24T08:52:51;26.90;1.00
48912;DHT22;34722;52.108;5.044;2023-08-24T08:55:18;27.00;99.90
48912;DHT22;34722;52.108;5.044;2023-08-24T08:57:48;27.00;99.90
48912;DHT22;34722;52.108;5.044;2023-08-24T09:00:18;27.20;99.90
48912;DHT22;34722;52.108;5.044;2023-08-24T09:02:45;27.40;99.90
48912;DHT22;34722;52.108;5.044;2023-08-24T09:05:14;28.00;99.90
48912;DHT22;34722;52.108;5.044;2023-08-24T09:07:40;28.30;1.00
48912;DHT22;34722;52.108;5.044;2023-08-24T09:10:06;28.30;1.00
48912;DHT22;34722;52.108;5.044;2023-08-24T09:12:33;28.90;99.90
48912;DHT22;34722;52.108;5.044;2023-08-24T09:14:59;29.50;82.20
48912;DHT22;34722;52.108;5.044;2023-08-24T09:17:25;29.80;1.00
48912;DHT22;34722;52.108;5.044;2023-08-24T09:19:55;30.50;1.00
48912;DHT22;34722;52.108;5.044;2023-08-24T09:22:23;30.70;99.90
48912;DHT22;34722;52.108;5.044;2023-08-24T09:24:49;30.90;99.90
48912;DHT22;34722;52.108;5.044;2023-08-24T09:27:18;31.10;99.90
48912;DHT22;34722;52.108;5.044;2023-08-24T09:29:52;30.90;99.90
48912;DHT22;34722;52.108;5.044;2023-08-24T09:32:36;30.50;99.90
48912;DHT22;34722;52.108;5.044;2023-08-24T09:35:08;30.20;99.90
48912;DHT22;34722;52.108;5.044;2023-08-24T09:37:35;30.30;99.90
48912;DHT22;34722;52.108;5.044;2023-08-24T09:40:03;30.10;99.90
48912;DHT22;34722;52.108;5.044;2023-08-24T09:42:42;29.70;99.90
48912;DHT22;34722;52.108;5.044;2023-08-24T09:45:12;29.10;99.90
48912;DHT22;34722;52.108;5.044;2023-08-24T09:47:39;28.80;1.00
48912;DHT22;34722;52.108;5.044;2023-08-24T09:50:06;28.30;1.00
48912;DHT22;34722;52.108;5.044;2023-08-24T09:52:33;28.30;64.80
48912;DHT22;34722;52.108;5.044;2023-08-24T09:55:03;28.00;99.90
48912;DHT22;34722;52.108;5.044;2023-08-24T09:57:39;27.70;1.00
48912;DHT22;34722;52.108;5.044;2023-08-24T10:00:09;27.40;99.90
48912;DHT22;34722;52.108;5.044;2023-08-24T10:02:49;27.20;1.00
48912;DHT22;34722;52.108;5.044;2023-08-24T10:05:18;26.60;99.90
48912;DHT22;34722;52.108;5.044;2023-08-24T10:07:56;26.10;9.90
48912;DHT22;34722;52.108;5.044;2023-08-24T10:10:31;25.80;99.90
48912;DHT22;34722;52.108;5.044;2023-08-24T10:13:06;25.50;99.90
48912;DHT22;34722;52.108;5.044;2023-08-24T10:15:35;25.10;1.00
48912;DHT22;34722;52.108;5.044;2023-08-24T10:18:02;24.70;99.90
48912;DHT22;34722;52.108;5.044;2023-08-24T10:20:31;24.50;1.00
48912;DHT22;34722;52.108;5.044;2023-08-24T10:22:58;24.30;1.00
48912;DHT22;34722;52.108;5.044;2023-08-24T10:25:25;24.20;1.00
48912;DHT22;34722;52.108;5.044;2023-08-24T10:27:53;24.00;1.00
48912;DHT22;34722;52.108;5.044;2023-08-24T10:30:20;23.80;4.70
48912;DHT22;34722;52.108;5.044;2023-08-24T10:32:46;23.70;32.70
48912;DHT22;34722;52.108;5.044;2023-08-24T10:35:23;23.60;99.00
48912;DHT22;34722;52.108;5.044;2023-08-24T10:37:52;23.40;99.90
48912;DHT22;34722;52.108;5.044;2023-08-24T10:40:37;23.20;99.90
48912;DHT22;34722;52.108;5.044;2023-08-24T10:43:09;23.00;99.90
48912;DHT22;34722;52.108;5.044;2023-08-24T10:45:58;22.90;99.90
48912;DHT22;34722;52.108;5.044;2023-08-24T10:48:57;23.00;99.90
48912;DHT22;34722;52.108;5.044;2023-08-24T10:51:26;23.10;99.90
48912;DHT22;34722;52.108;5.044;2023-08-24T10:53:56;23.10;99.90
48912;DHT22;34722;52.108;5.044;2023-08-24T10:56:52;23.10;99.90
48912;DHT22;34722;52.108;5.044;2023-08-24T10:59:21;23.20;99.90
48912;DHT22;34722;52.108;5.044;2023-08-24T11:02:21;23.30;99.90
48912;DHT22;34722;52.108;5.044;2023-08-24T11:05:17;23.50;99.90
48912;DHT22;34722;52.108;5.044;2023-08-24T11:07:56;23.70;99.90
48912;DHT22;34722;52.108;5.044;2023-08-24T11:10:24;23.70;99.90
48912;DHT22;34722;52.108;5.044;2023-08-24T11:13:13;23.80;99.90
48912;DHT22;34722;52.108;5.044;2023-08-24T11:15:44;23.90;99.90
48912;DHT22;34722;52.108;5.044;2023-08-24T11:20:44;24.20;99.90
48912;DHT22;34722;52.108;5.044;2023-08-24T11:23:10;24.40;99.90
48912;DHT22;34722;52.108;5.044;2023-08-24T11:25:36;24.70;99.90
48912;DHT22;34722;52.108;5.044;2023-08-24T11:28:03;24.90;99.90
48912;DHT22;34722;52.108;5.044;2023-08-24T11:30:30;24.90;99.90
48912;DHT22;34722;52.108;5.044;2023-08-24T11:32:56;25.00;99.90
48912;DHT22;34722;52.108;5.044;2023-08-24T11:35:22;25.20;99.90
48912;DHT22;34722;52.108;5.044;2023-08-24T11:37:52;25.30;99.90
48912;DHT22;34722;52.108;5.044;2023-08-24T11:40:18;25.60;99.90
48912;DHT22;34722;52.108;5.044;2023-08-24T11:42:45;25.80;99.90
48912;DHT22;34722;52.108;5.044;2023-08-24T11:45:12;26.10;99.90
48912;DHT22;34722;52.108;5.044;2023-08-24T11:47:45;26.40;99.20
48912;DHT22;34722;52.108;5.044;2023-08-24T11:50:11;26.70;1.00
48912;DHT22;34722;52.108;5.044;2023-08-24T11:52:40;26.80;10.00
48912;DHT22;34722;52.108;5.044;2023-08-24T11:55:10;26.80;1.00
48912;DHT22;34722;52.108;5.044;2023-08-24T11:57:36;26.90;1.00
48912;DHT22;34722;52.108;5.044;2023-08-24T12:00:05;27.30;99.90
48912;DHT22;34722;52.108;5.044;2023-08-24T12:02:32;28.10;99.90
48912;DHT22;34722;52.108;5.044;2023-08-24T12:04:58;29.00;99.90
48912;DHT22;34722;52.108;5.044;2023-08-24T12:07:24;29.90;99.90
48912;DHT22;34722;52.108;5.044;2023-08-24T12:09:51;31.40;99.90
48912;DHT22;34722;52.108;5.044;2023-08-24T12:12:19;31.90;1.00
48912;DHT22;34722;52.108;5.044;2023-08-24T12:14:49;31.40;6.20
48912;DHT22;34722;52.108;5.044;2023-08-24T12:20:48;30.10;17.80
48912;DHT22;34722;52.108;5.044;2023-08-24T12:23:14;29.50;99.90
48912;DHT22;34722;52.108;5.044;2023-08-24T12:25:43;28.90;45.80
48912;DHT22;34722;52.108;5.044;2023-08-24T12:28:10;28.60;1.00
48912;DHT22;34722;52.108;5.044;2023-08-24T12:30:47;27.70;1.00
48912;DHT22;34722;52.108;5.044;2023-08-24T12:33:27;27.40;1.00
48912;DHT22;34722;52.108;5.044;2023-08-24T12:35:53;27.30;1.00
48912;DHT22;34722;52.108;5.044;2023-08-24T12:38:20;27.40;1.00
48912;DHT22;34722;52.108;5.044;2023-08-24T12:40:45;27.20;99.90
48912;DHT22;34722;52.108;5.044;2023-08-24T12:43:11;27.50;99.90
48912;DHT22;34722;52.108;5.044;2023-08-24T12:45:37;27.90;99.90
48912;DHT22;34722;52.108;5.044;2023-08-24T12:48:04;28.20;99.90
48912;DHT22;34722;52.108;5.044;2023-08-24T12:50:29;28.40;99.90
48912;DHT22;34722;52.108;5.044;2023-08-24T12:52:55;28.50;1.00
48912;DHT22;34722;52.108;5.044;2023-08-24T12:55:25;28.90;8.90
48912;DHT22;34722;52.108;5.044;2023-08-24T12:57:53;28.60;1.00
48912;DHT22;34722;52.108;5.044;2023-08-24T13:00:19;28.60;99.90
48912;DHT22;34722;52.108;5.044;2023-08-24T13:02:45;28.60;99.90
48912;DHT22;34722;52.108;5.044;2023-08-24T13:05:13;28.30;1.00
48912;DHT22;34722;52.108;5.044;2023-08-24T13:07:42;28.10;99.90
48912;DHT22;34722;52.108;5.044;2023-08-24T13:10:11;27.90;1.00
48912;DHT22;34722;52.108;5.044;2023-08-24T13:12:37;27.80;99.90
48912;DHT22;34722;52.108;5.044;2023-08-24T13:15:03;27.40;99.90
48912;DHT22;34722;52.108;5.044;2023-08-24T13:17:32;27.40;99.90
48912;DHT22;34722;52.108;5.044;2023-08-24T13:19:58;27.50;99.90
48912;DHT22;34722;52.108;5.044;2023-08-24T13:22:26;27.60;99.90
48912;DHT22;34722;52.108;5.044;2023-08-24T13:24:52;27.70;99.90
48912;DHT22;34722;52.108;5.044;2023-08-24T13:27:38;27.60;21.40
48912;DHT22;34722;52.108;5.044;2023-08-24T13:30:07;27.10;99.90
48912;DHT22;34722;52.108;5.044;2023-08-24T13:32:39;27.10;1.00
48912;DHT22;34722;52.108;5.044;2023-08-24T13:35:20;27.00;1.00
48912;DHT22;34722;52.108;5.044;2023-08-24T13:37:47;26.90;99.90
48912;DHT22;34722;52.108;5.044;2023-08-24T13:40:13;26.70;99.90
48912;DHT22;34722;52.108;5.044;2023-08-24T13:42:39;26.60;1.00
48912;DHT22;34722;52.108;5.044;2023-08-24T13:45:05;26.70;99.90
48912;DHT22;34722;52.108;5.044;2023-08-24T13:47:32;26.60;1.00
48912;DHT22;34722;52.108;5.044;2023-08-24T13:49:57;26.70;99.90
48912;DHT22;34722;52.108;5.044;2023-08-24T13:52:23;26.60;99.90
48912;DHT22;34722;52.108;5.044;2023-08-24T13:54:49;26.60;99.90
48912;DHT22;34722;52.108;5.044;2023-08-24T13:57:15;26.60;99.90
48912;DHT22;34722;52.108;5.044;2023-08-24T13:59:41;26.30;99.90
48912;DHT22;34722;52.108;5.044;2023-08-24T14:02:06;26.10;1.00
48912;DHT22;34722;52.108;5.044;2023-08-24T14:04:32;25.90;1.00
48912;DHT22;34722;52.108;5.044;2023-08-24T14:06:58;25.70;1.00
48912;DHT22;34722;52.108;5.044;2023-08-24T14:09:24;25.80;1.00
48912;DHT22;34722;52.108;5.044;2023-08-24T14:11:50;25.70;1.00
48912;DHT22;34722;52.108;5.044;2023-08-24T14:14:16;25.70;1.00
48912;DHT22;34722;52.108;5.044;2023-08-24T14:16:45;25.70;18.80
48912;DHT22;34722;52.108;5.044;2023-08-24T14:19:11;25.80;9.40
48912;DHT22;34722;52.108;5.044;2023-08-24T14:21:40;25.80;18.50
48912;DHT22;34722;52.108;5.044;2023-08-24T14:24:06;25.80;15.40
48912;DHT22;34722;52.108;5.044;2023-08-24T14:26:32;25.80;12.00
48912;DHT22;34722;52.108;5.044;2023-08-24T14:28:58;25.70;20.20
48912;DHT22;34722;52.108;5.044;2023-08-24T14:31:26;25.60;78.80
48912;DHT22;34722;52.108;5.044;2023-08-24T14:33:55;25.50;79.00
48912;DHT22;34722;52.108;5.044;2023-08-24T14:36:22;25.50;99.40
48912;DHT22;34722;52.108;5.044;2023-08-24T14:38:48;25.50;99.90
48912;DHT22;34722;52.108;5.044;2023-08-24T14:41:14;25.40;99.90
48912;DHT22;34722;52.108;5.044;2023-08-24T14:43:43;25.20;99.90
48912;DHT22;34722;52.108;5.044;2023-08-24T14:46:12;25.20;99.90
48912;DHT22;34722;52.108;5.044;2023-08-24T14:48:43;25.10;99.90
48912;DHT22;34722;52.108;5.044;2023-08-24T14:51:09;25.10;99.90
48912;DHT22;34722;52.108;5.044;2023-08-24T14:53:35;25.10;99.90
48912;DHT22;34722;52.108;5.044;2023-08-24T14:56:01;25.10;99.90
48912;DHT22;34722;52.108;5.044;2023-08-24T14:58:32;25.20;99.90
48912;DHT22;34722;52.108;5.044;2023-08-24T15:00:58;25.00;99.90
48912;DHT22;34722;52.108;5.044;2023-08-24T15:03:25;24.90;99.90
48912;DHT22;34722;52.108;5.044;2023-08-24T15:06:03;25.00;99.90
48912;DHT22;34722;52.108;5.044;2023-08-24T15:08:38;25.10;99.90
48912;DHT22;34722;52.108;5.044;2023-08-24T15:11:06;25.20;99.90
48912;DHT22;34722;52.108;5.044;2023-08-24T15:13:32;25.30;99.90
48912;DHT22;34722;52.108;5.044;2023-08-24T15:15:58;25.50;99.90
48912;DHT22;34722;52.108;5.044;2023-08-24T15:18:35;25.60;99.90
48912;DHT22;34722;52.108;5.044;2023-08-24T15:21:34;25.90;99.90
48912;DHT22;34722;52.108;5.044;2023-08-24T15:26:58;26.30;99.90
48912;DHT22;34722;52.108;5.044;2023-08-24T15:29:27;26.40;99.90
48912;DHT22;34722;52.108;5.044;2023-08-24T15:32:00;26.50;35.40
48912;DHT22;34722;52.108;5.044;2023-08-24T15:34:26;26.50;5.80
48912;DHT22;34722;52.108;5.044;2023-08-24T15:36:54;26.20;32.10
48912;DHT22;34722;52.108;5.044;2023-08-24T15:39:22;26.10;82.10
48912;DHT22;34722;52.108;5.044;2023-08-24T15:41:54;25.90;99.90
48912;DHT22;34722;52.108;5.044;2023-08-24T15:45:04;25.80;99.90
48912;DHT22;34722;52.108;5.044;2023-08-24T15:47:43;25.80;99.90
48912;DHT22;34722;52.108;5.044;2023-08-24T15:50:09;25.90;99.90
48912;DHT22;34722;52.108;5.044;2023-08-24T15:52:35;25.90;99.90